createdAt,value
2022-10-20T00:02:16.736Z,8.90
2022-10-20T00:04:43.293Z,8.90
2022-10-20T00:07:09.864Z,8.90
2022-10-20T00:09:36.417Z,8.90
2022-10-20T00:12:03.115Z,8.90
2022-10-20T00:14:29.637Z,8.90
2022-10-20T00:16:56.170Z,8.90
2022-10-20T00:19:23.775Z,8.90
2022-10-20T00:21:50.391Z,8.90
2022-10-20T00:24:17.120Z,8.90
2022-10-20T00:26:43.660Z,8.90
2022-10-20T00:29:10.408Z,8.90
2022-10-20T00:31:37.008Z,8.80
2022-10-20T00:34:03.739Z,8.80
2022-10-20T00:36:30.399Z,8.80
2022-10-20T00:38:59.594Z,8.80
2022-10-20T00:41:27.362Z,8.80
2022-10-20T00:43:57.389Z,8.80
2022-10-20T00:46:30.656Z,8.80
2022-10-20T00:49:06.868Z,8.70
2022-10-20T00:51:34.308Z,8.70
2022-10-20T00:54:08.991Z,8.70
2022-10-20T00:56:38.887Z,8.70
2022-10-20T00:59:05.936Z,8.70
2022-10-20T01:01:33.308Z,8.70
2022-10-20T01:04:00.925Z,8.70
2022-10-20T01:06:27.957Z,8.70
2022-10-20T01:08:54.933Z,8.70
2022-10-20T01:11:47.429Z,8.70
2022-10-20T01:14:38.661Z,8.70
2022-10-20T01:17:29.258Z,8.60
2022-10-20T01:20:18.546Z,8.60
2022-10-20T01:23:05.227Z,8.60
2022-10-20T01:26:16.596Z,8.60
2022-10-20T01:28:51.391Z,8.60
2022-10-20T01:31:57.888Z,8.50
2022-10-20T01:34:24.384Z,8.50
2022-10-20T01:37:02.067Z,8.50
2022-10-20T01:39:50.944Z,8.50
2022-10-20T01:42:24.489Z,8.50
2022-10-20T01:44:55.975Z,8.50
2022-10-20T01:47:26.607Z,8.50
2022-10-20T01:49:54.198Z,8.50
2022-10-20T01:52:22.186Z,8.50
2022-10-20T01:54:48.722Z,8.50
2022-10-20T01:57:36.759Z,8.40
2022-10-20T02:00:07.744Z,8.40
2022-10-20T02:02:48.884Z,8.40
2022-10-20T02:05:33.443Z,8.40
2022-10-20T02:08:23.010Z,8.40
2022-10-20T02:10:57.223Z,8.40
2022-10-20T02:13:25.189Z,8.30
2022-10-20T02:15:55.766Z,8.40
2022-10-20T02:18:29.950Z,8.30
2022-10-20T02:20:59.692Z,8.30
2022-10-20T02:23:28.128Z,8.30
2022-10-20T02:25:55.552Z,8.20
2022-10-20T02:28:22.679Z,8.20
2022-10-20T02:30:49.427Z,8.10
2022-10-20T02:33:16.976Z,8.10
2022-10-20T02:35:56.698Z,8.10
2022-10-20T02:38:23.612Z,8.10
2022-10-20T02:40:50.147Z,8.00
2022-10-20T02:43:17.066Z,8.00
2022-10-20T02:45:43.658Z,8.00
2022-10-20T02:48:11.784Z,8.00
2022-10-20T02:50:39.125Z,7.90
2022-10-20T02:53:06.150Z,7.90
2022-10-20T02:55:32.740Z,7.90
2022-10-20T02:57:59.346Z,7.90
2022-10-20T03:00:29.430Z,7.90
2022-10-20T03:02:56.160Z,7.80
2022-10-20T03:05:23.351Z,7.80
2022-10-20T03:07:50.184Z,7.80
2022-10-20T03:10:16.708Z,7.80
2022-10-20T03:12:43.223Z,7.80
2022-10-20T03:15:10.188Z,7.80
2022-10-20T03:17:36.986Z,7.70
2022-10-20T03:20:04.745Z,7.70
2022-10-20T03:22:31.374Z,7.70
2022-10-20T03:24:57.920Z,7.70
2022-10-20T03:27:24.618Z,7.60
2022-10-20T03:29:51.350Z,7.60
2022-10-20T03:32:21.914Z,7.60
2022-10-20T03:34:48.443Z,7.60
2022-10-20T03:37:14.989Z,7.60
2022-10-20T03:39:41.628Z,7.60
2022-10-20T03:42:08.151Z,7.50
2022-10-20T03:44:34.695Z,7.50
2022-10-20T03:47:01.284Z,7.50
2022-10-20T03:49:27.832Z,7.50
2022-10-20T03:51:54.379Z,7.40
2022-10-20T03:54:20.935Z,7.40
2022-10-20T03:56:47.492Z,7.40
2022-10-20T03:59:14.003Z,7.40
2022-10-20T04:01:45.082Z,7.40
2022-10-20T04:04:11.970Z,7.40
2022-10-20T04:06:38.503Z,7.40
2022-10-20T04:09:06.365Z,7.40
2022-10-20T04:11:33.482Z,7.30
2022-10-20T04:14:01.593Z,7.30
2022-10-20T04:16:28.122Z,7.30
2022-10-20T04:18:55.848Z,7.30
2022-10-20T04:21:22.453Z,7.30
2022-10-20T04:23:48.974Z,7.30
2022-10-20T04:26:16.668Z,7.30
2022-10-20T04:28:43.445Z,7.30
2022-10-20T04:31:10.048Z,7.20
2022-10-20T04:33:36.641Z,7.20
2022-10-20T04:36:06.356Z,7.20
2022-10-20T04:38:34.445Z,7.20
2022-10-20T04:41:04.383Z,7.20
2022-10-20T04:43:32.379Z,7.20
2022-10-20T04:46:07.251Z,7.10
2022-10-20T04:48:36.111Z,7.10
2022-10-20T04:51:09.069Z,7.10
2022-10-20T04:53:36.353Z,7.10
2022-10-20T04:56:05.419Z,7.10
2022-10-20T04:58:32.352Z,7.00
2022-10-20T05:01:08.041Z,7.00
2022-10-20T05:03:35.720Z,7.00
2022-10-20T05:06:09.527Z,7.00
2022-10-20T05:08:36.393Z,7.00
2022-10-20T05:11:02.989Z,7.00
2022-10-20T05:13:29.644Z,7.00
2022-10-20T05:15:56.294Z,7.00
2022-10-20T05:18:23.961Z,7.00
2022-10-20T05:21:07.648Z,7.00
2022-10-20T05:23:35.066Z,7.00
2022-10-20T05:26:10.182Z,7.00
2022-10-20T05:28:36.813Z,7.00
2022-10-20T05:31:07.941Z,7.00
2022-10-20T05:33:35.868Z,7.00
2022-10-20T05:36:12.552Z,7.00
2022-10-20T05:38:40.842Z,7.00
2022-10-20T05:41:13.120Z,7.00
2022-10-20T05:43:39.823Z,7.00
2022-10-20T05:46:07.390Z,7.00
2022-10-20T05:48:35.360Z,7.00
2022-10-20T05:51:14.892Z,7.00
2022-10-20T05:53:42.687Z,7.00
2022-10-20T05:56:12.732Z,7.00
2022-10-20T05:58:39.681Z,7.00
2022-10-20T06:01:16.650Z,7.00
2022-10-20T06:03:47.331Z,7.00
2022-10-20T06:06:13.893Z,7.00
2022-10-20T06:11:33.772Z,7.00
2022-10-20T06:14:04.279Z,7.00
2022-10-20T06:16:32.643Z,7.10
2022-10-20T06:18:59.681Z,7.10
2022-10-20T06:21:29.053Z,7.20
2022-10-20T06:23:57.733Z,7.20
2022-10-20T06:26:26.054Z,7.20
2022-10-20T06:29:03.659Z,7.30
2022-10-20T06:31:36.676Z,7.20
2022-10-20T06:34:05.864Z,7.30
2022-10-20T06:36:37.796Z,7.30
2022-10-20T06:39:06.274Z,7.30
2022-10-20T06:41:33.419Z,7.30
2022-10-20T06:44:00.395Z,7.40
2022-10-20T06:46:30.021Z,7.40
2022-10-20T06:48:58.756Z,7.40
2022-10-20T06:51:25.918Z,7.50
2022-10-20T06:53:52.605Z,7.50
2022-10-20T06:56:25.299Z,7.50
2022-10-20T06:58:53.799Z,7.50
2022-10-20T07:01:34.971Z,7.50
2022-10-20T07:04:10.152Z,7.60
2022-10-20T07:06:39.287Z,7.70
2022-10-20T07:09:11.303Z,7.60
2022-10-20T07:11:38.211Z,7.70
2022-10-20T07:14:05.352Z,7.60
2022-10-20T07:16:34.640Z,7.80
2022-10-20T07:19:02.263Z,7.80
2022-10-20T07:21:34.444Z,7.90
2022-10-20T07:24:05.403Z,7.90
2022-10-20T07:26:35.379Z,8.00
2022-10-20T07:29:03.280Z,8.10
2022-10-20T07:31:31.611Z,8.20
2022-10-20T07:34:06.843Z,8.20
2022-10-20T07:36:42.076Z,8.30
2022-10-20T07:39:09.812Z,8.30
2022-10-20T07:41:39.346Z,8.30
2022-10-20T07:44:07.281Z,8.40
2022-10-20T07:52:12.065Z,8.50
2022-10-20T07:54:39.190Z,8.50
2022-10-20T07:57:05.739Z,8.60
2022-10-20T07:59:32.295Z,8.70
2022-10-20T08:02:00.030Z,8.70
2022-10-20T08:04:27.600Z,8.80
2022-10-20T08:06:54.252Z,8.90
2022-10-20T08:09:20.792Z,8.90
2022-10-20T08:11:50.367Z,9.00
2022-10-20T08:14:19.455Z,9.10
2022-10-20T08:16:50.242Z,9.10
2022-10-20T08:21:57.333Z,9.20
2022-10-20T08:24:23.876Z,9.20
2022-10-20T08:26:50.392Z,9.30
2022-10-20T08:29:16.972Z,9.40
2022-10-20T08:31:48.657Z,9.50
2022-10-20T08:34:15.232Z,9.50
2022-10-20T08:36:41.763Z,9.60
2022-10-20T08:39:11.210Z,9.60
2022-10-20T08:42:06.399Z,9.70
2022-10-20T08:44:33.149Z,9.80
2022-10-20T08:47:05.471Z,9.80
2022-10-20T08:49:34.488Z,9.80
2022-10-20T08:52:01.637Z,9.90
2022-10-20T08:54:28.440Z,10.00
2022-10-20T08:56:55.032Z,10.00
2022-10-20T08:59:39.571Z,10.10
2022-10-20T09:02:15.728Z,10.20
2022-10-20T09:04:49.609Z,10.20
2022-10-20T09:07:38.855Z,10.20
2022-10-20T09:10:30.447Z,10.30
2022-10-20T09:13:00.336Z,10.50
2022-10-20T09:15:28.299Z,10.60
2022-10-20T09:18:00.201Z,10.60
2022-10-20T09:20:36.139Z,10.70
2022-10-20T09:23:07.863Z,10.70
2022-10-20T09:25:39.771Z,10.80
2022-10-20T09:28:27.026Z,10.80
2022-10-20T09:30:57.227Z,10.90
2022-10-20T09:33:31.177Z,10.90
2022-10-20T09:36:19.387Z,10.90
2022-10-20T09:38:51.592Z,11.00
2022-10-20T09:41:21.568Z,11.10
2022-10-20T09:44:10.094Z,11.20
2022-10-20T09:46:46.273Z,11.20
2022-10-20T09:49:37.178Z,11.30
2022-10-20T09:52:18.555Z,11.40
2022-10-20T09:54:50.369Z,11.50
2022-10-20T09:57:22.016Z,11.60
2022-10-20T09:59:51.996Z,11.60
2022-10-20T10:02:21.228Z,11.50
2022-10-20T10:04:50.815Z,11.60
2022-10-20T10:07:26.597Z,11.70
2022-10-20T10:10:03.915Z,11.90
2022-10-20T10:12:37.303Z,12.00
2022-10-20T10:15:07.694Z,12.00
2022-10-20T10:17:40.188Z,12.10
2022-10-20T10:20:07.113Z,12.00
2022-10-20T10:22:35.181Z,12.00
2022-10-20T10:25:02.853Z,12.00
2022-10-20T10:27:31.606Z,12.00
2022-10-20T10:30:31.629Z,12.00
2022-10-20T10:32:58.255Z,12.10
2022-10-20T10:35:29.173Z,12.20
2022-10-20T10:41:12.275Z,12.40
2022-10-20T10:44:04.224Z,12.50
2022-10-20T10:52:38.935Z,12.90
2022-10-20T10:55:47.109Z,12.90
2022-10-20T10:58:38.364Z,12.90
2022-10-20T11:01:37.960Z,12.80
2022-10-20T11:04:44.720Z,12.70
2022-10-20T11:07:26.485Z,12.70
2022-10-20T11:10:16.108Z,12.70
2022-10-20T11:13:23.079Z,12.70
2022-10-20T11:16:34.802Z,12.70
2022-10-20T11:19:13.243Z,12.70
2022-10-20T11:22:17.140Z,12.70
2022-10-20T11:24:49.072Z,12.90
2022-10-20T11:27:28.332Z,13.20
2022-10-20T11:30:08.156Z,13.30
2022-10-20T11:32:53.567Z,13.30
2022-10-20T11:35:33.897Z,13.30
2022-10-20T11:38:20.691Z,13.30
2022-10-20T11:40:55.153Z,13.40
2022-10-20T11:43:47.485Z,13.40
2022-10-20T11:46:19.759Z,13.40
2022-10-20T11:48:59.162Z,13.50
2022-10-20T11:51:29.839Z,13.70
2022-10-20T11:54:02.382Z,13.80
2022-10-20T11:57:04.617Z,13.90
2022-10-20T11:59:48.664Z,13.90
2022-10-20T12:02:15.180Z,13.90
2022-10-20T12:05:02.835Z,13.90
2022-10-20T12:07:35.127Z,13.90
2022-10-20T12:10:24.491Z,13.90
2022-10-20T12:13:27.463Z,13.90
2022-10-20T12:15:54.036Z,13.90
2022-10-20T12:18:35.797Z,14.10
2022-10-20T12:21:05.357Z,14.30
2022-10-20T12:23:44.107Z,14.40
2022-10-20T12:26:29.796Z,14.60
2022-10-20T12:28:57.615Z,14.80
2022-10-20T12:31:25.623Z,14.80
2022-10-20T12:33:53.287Z,14.80
2022-10-20T12:36:19.772Z,14.80
2022-10-20T12:39:09.628Z,14.80
2022-10-20T12:41:55.384Z,14.80
2022-10-20T12:44:23.090Z,14.90
2022-10-20T12:47:03.263Z,14.80
2022-10-20T12:49:34.379Z,14.90
2022-10-20T12:52:02.368Z,14.90
2022-10-20T12:54:45.008Z,15.00
2022-10-20T12:57:41.551Z,15.20
2022-10-20T13:00:21.256Z,15.20
2022-10-20T13:02:52.948Z,15.30
2022-10-20T13:05:19.419Z,15.30
2022-10-20T13:08:00.288Z,15.40
2022-10-20T13:10:31.338Z,15.60
2022-10-20T13:13:04.105Z,15.60
2022-10-20T13:15:38.979Z,15.70
2022-10-20T13:18:19.941Z,15.80
2022-10-20T13:21:20.832Z,15.80
2022-10-20T13:24:15.314Z,15.70
2022-10-20T13:26:52.251Z,15.70
2022-10-20T13:29:34.373Z,15.50
2022-10-20T13:32:28.615Z,15.60
2022-10-20T13:35:01.678Z,15.80
2022-10-20T13:37:44.665Z,15.90
2022-10-20T13:40:27.876Z,15.80
2022-10-20T13:43:00.552Z,15.80
2022-10-20T13:45:53.379Z,15.80
2022-10-20T13:48:51.966Z,15.90
2022-10-20T13:51:23.260Z,15.90
2022-10-20T13:54:02.585Z,15.90
2022-10-20T13:56:46.373Z,16.00
2022-10-20T13:59:17.546Z,15.90
2022-10-20T14:01:50.942Z,16.00
2022-10-20T14:04:28.329Z,16.10
2022-10-20T14:06:55.245Z,16.20
2022-10-20T14:09:24.849Z,16.40
2022-10-20T14:12:02.288Z,16.50
2022-10-20T14:14:30.633Z,16.50
2022-10-20T14:17:08.481Z,16.40
2022-10-20T14:19:37.081Z,16.40
2022-10-20T14:22:15.488Z,16.30
2022-10-20T14:24:45.468Z,16.20
2022-10-20T14:27:31.088Z,16.00
2022-10-20T14:29:59.670Z,16.20
2022-10-20T14:32:28.755Z,16.20
2022-10-20T14:35:18.646Z,16.00
2022-10-20T14:37:52.567Z,16.00
2022-10-20T14:40:23.500Z,15.90
2022-10-20T14:42:50.842Z,15.80
2022-10-20T14:45:20.789Z,15.70
2022-10-20T14:47:48.271Z,15.60
2022-10-20T14:50:35.513Z,15.50
2022-10-20T14:53:29.261Z,15.50
2022-10-20T14:56:00.009Z,15.40
2022-10-20T14:58:34.468Z,15.30
2022-10-20T15:01:17.284Z,15.40
2022-10-20T15:03:49.522Z,15.40
2022-10-20T15:06:18.096Z,15.30
2022-10-20T15:08:57.568Z,15.30
2022-10-20T15:11:26.559Z,15.20
2022-10-20T15:13:55.133Z,15.10
2022-10-20T15:16:54.179Z,15.10
2022-10-20T15:19:23.476Z,15.10
2022-10-20T15:21:57.596Z,15.00
2022-10-20T15:24:24.132Z,14.90
2022-10-20T15:26:50.710Z,14.70
2022-10-20T15:29:17.604Z,14.60
2022-10-20T15:31:44.132Z,14.50
2022-10-20T15:34:13.011Z,14.40
2022-10-20T15:36:42.131Z,14.40
2022-10-20T15:39:09.599Z,14.50
2022-10-20T15:41:36.963Z,14.40
2022-10-20T15:44:07.683Z,14.40
2022-10-20T15:46:34.243Z,14.40
2022-10-20T15:49:00.825Z,14.40
2022-10-20T15:51:30.500Z,14.30
2022-10-20T15:53:58.060Z,14.30
2022-10-20T15:56:25.114Z,14.30
2022-10-20T15:58:51.860Z,14.40
2022-10-20T16:01:20.640Z,14.30
2022-10-20T16:03:48.190Z,14.30
2022-10-20T16:06:17.853Z,14.20
2022-10-20T16:08:46.585Z,14.30
2022-10-20T16:11:14.694Z,14.20
2022-10-20T16:13:41.820Z,14.10
2022-10-20T16:16:12.479Z,14.10
2022-10-20T16:18:38.996Z,14.00
2022-10-20T16:21:06.687Z,14.10
2022-10-20T16:23:40.584Z,14.00
2022-10-20T16:26:10.848Z,14.00
2022-10-20T16:28:38.054Z,14.00
2022-10-20T16:31:06.751Z,13.70
2022-10-20T16:33:33.985Z,13.60
2022-10-20T16:36:05.693Z,13.50
2022-10-20T16:38:37.377Z,13.40
2022-10-20T16:41:10.215Z,13.40
2022-10-20T16:43:41.451Z,13.40
2022-10-20T16:46:09.585Z,13.40
2022-10-20T16:48:37.829Z,13.40
2022-10-20T16:51:11.848Z,13.40
2022-10-20T16:53:38.493Z,13.40
2022-10-20T16:56:05.426Z,13.40
2022-10-20T16:58:32.119Z,13.40
2022-10-20T17:01:08.498Z,13.40
2022-10-20T17:03:37.038Z,13.40
2022-10-20T17:06:06.712Z,13.40
2022-10-20T17:08:34.083Z,13.20
2022-10-20T17:11:09.351Z,13.30
2022-10-20T17:13:37.377Z,13.20
2022-10-20T17:16:09.265Z,13.20
2022-10-20T17:18:36.388Z,13.30
2022-10-20T17:21:03.749Z,13.20
2022-10-20T17:23:38.680Z,13.20
2022-10-20T17:26:09.530Z,13.20
2022-10-20T17:28:37.248Z,13.30
2022-10-20T17:31:08.670Z,13.30
2022-10-20T17:33:37.279Z,13.40
2022-10-20T17:36:04.160Z,13.40
2022-10-20T17:38:31.396Z,13.40
2022-10-20T17:41:24.285Z,13.30
2022-10-20T17:43:50.997Z,13.40
2022-10-20T17:46:19.646Z,13.40
2022-10-20T17:48:46.871Z,13.40
2022-10-20T17:51:16.763Z,13.40
2022-10-20T17:53:45.842Z,13.40
2022-10-20T17:56:18.201Z,13.40
2022-10-20T17:58:47.326Z,13.40
2022-10-20T18:01:17.234Z,13.30
2022-10-20T18:03:45.227Z,13.30
2022-10-20T18:06:17.286Z,13.30
2022-10-20T18:08:44.381Z,13.20
2022-10-20T18:11:16.295Z,13.20
2022-10-20T18:13:43.028Z,13.10
2022-10-20T18:16:12.577Z,13.20
2022-10-20T18:18:41.035Z,13.20
2022-10-20T18:21:10.263Z,13.20
2022-10-20T18:23:37.008Z,13.20
2022-10-20T18:26:06.601Z,13.20
2022-10-20T18:28:33.964Z,13.20
2022-10-20T18:31:08.831Z,13.10
2022-10-20T18:33:35.407Z,13.10
2022-10-20T18:36:10.408Z,13.00
2022-10-20T18:38:38.904Z,13.00
2022-10-20T18:41:10.947Z,13.00
2022-10-20T18:43:37.791Z,13.00
2022-10-20T18:46:05.864Z,13.00
2022-10-20T18:48:36.683Z,13.00
2022-10-20T18:51:04.699Z,13.00
2022-10-20T18:53:32.685Z,12.90
2022-10-20T18:56:03.533Z,12.90
2022-10-20T18:58:31.394Z,12.90
2022-10-20T19:01:16.298Z,12.90
2022-10-20T19:03:46.290Z,12.90
2022-10-20T19:06:25.202Z,12.80
2022-10-20T19:08:56.543Z,12.90
2022-10-20T19:11:25.758Z,12.90
2022-10-20T19:13:52.509Z,12.90
2022-10-20T19:16:21.940Z,12.90
2022-10-20T19:18:50.257Z,12.90
2022-10-20T19:21:18.103Z,12.90
2022-10-20T19:23:48.228Z,12.80
2022-10-20T19:26:27.325Z,12.80
2022-10-20T19:28:58.886Z,12.70
2022-10-20T19:31:25.562Z,12.70
2022-10-20T19:33:55.396Z,12.70
2022-10-20T19:36:22.495Z,12.50
2022-10-20T19:38:49.040Z,12.40
2022-10-20T19:41:16.253Z,12.40
2022-10-20T19:43:42.853Z,12.40
2022-10-20T19:46:13.369Z,12.30
2022-10-20T19:48:40.273Z,12.40
2022-10-20T19:51:09.692Z,12.40
2022-10-20T19:53:37.291Z,12.30
2022-10-20T19:56:05.491Z,12.30
2022-10-20T19:58:32.053Z,12.20
2022-10-20T20:00:59.510Z,12.20
2022-10-20T20:03:26.583Z,12.20
2022-10-20T20:06:00.648Z,12.20
2022-10-20T20:08:27.393Z,12.10
2022-10-20T20:10:56.335Z,12.00
2022-10-20T20:13:24.428Z,11.90
2022-10-20T20:15:51.910Z,11.90
2022-10-20T20:21:09.925Z,11.90
2022-10-20T20:23:47.752Z,12.00
2022-10-20T20:26:23.283Z,12.00
2022-10-20T20:28:52.231Z,12.10
2022-10-20T20:31:18.911Z,12.10
2022-10-20T20:33:45.470Z,12.00
2022-10-20T20:36:12.032Z,12.00
2022-10-20T20:38:39.256Z,12.10
2022-10-20T20:41:10.117Z,12.10
2022-10-20T20:43:36.806Z,12.10
2022-10-20T20:46:29.097Z,12.10
2022-10-20T20:48:55.658Z,12.10
2022-10-20T20:51:22.241Z,12.20
2022-10-20T20:53:48.916Z,12.10
2022-10-20T20:56:20.562Z,12.00
2022-10-20T20:58:49.950Z,11.90
2022-10-20T21:01:22.612Z,11.80
2022-10-20T21:03:54.139Z,11.80
2022-10-20T21:06:25.633Z,11.70
2022-10-20T21:09:00.717Z,11.80
2022-10-20T21:11:27.765Z,11.70
2022-10-20T21:13:55.741Z,11.80
2022-10-20T21:16:27.405Z,11.80
2022-10-20T21:18:56.427Z,11.90
2022-10-20T21:21:25.403Z,11.80
2022-10-20T21:23:52.884Z,11.80
2022-10-20T21:26:21.539Z,11.80
2022-10-20T21:28:48.932Z,11.90
2022-10-20T21:31:18.498Z,12.00
2022-10-20T21:33:46.284Z,11.90
2022-10-20T21:36:15.213Z,11.80
2022-10-20T21:38:42.992Z,11.80
2022-10-20T21:41:15.875Z,11.80
2022-10-20T21:43:46.075Z,11.80
2022-10-20T21:46:16.773Z,11.70
2022-10-20T21:48:44.963Z,11.70
2022-10-20T21:51:33.255Z,11.60
2022-10-20T21:54:02.172Z,11.70
2022-10-20T21:56:29.670Z,11.60
2022-10-20T21:58:56.319Z,11.70
2022-10-20T22:01:25.451Z,11.80
2022-10-20T22:03:53.801Z,11.80
2022-10-20T22:06:23.321Z,11.80
2022-10-20T22:08:52.717Z,11.80
2022-10-20T22:11:26.516Z,11.80
2022-10-20T22:13:55.114Z,11.70
2022-10-20T22:16:25.591Z,11.70
2022-10-20T22:19:00.665Z,11.70
2022-10-20T22:21:28.880Z,11.60
2022-10-20T22:23:57.929Z,11.50
2022-10-20T22:29:20.584Z,11.60
2022-10-20T22:31:47.292Z,11.70
2022-10-20T22:34:14.275Z,11.70
2022-10-20T22:36:41.012Z,11.70
2022-10-20T22:39:08.628Z,11.70
2022-10-20T22:41:35.268Z,11.60
2022-10-20T22:44:01.877Z,11.60
2022-10-20T22:46:29.224Z,11.50
2022-10-20T22:48:55.816Z,11.50
2022-10-20T22:51:22.492Z,11.50
2022-10-20T22:53:49.082Z,11.50
2022-10-20T22:56:21.151Z,11.50
2022-10-20T22:58:48.703Z,11.50
2022-10-20T23:01:20.394Z,11.50
2022-10-20T23:03:47.423Z,11.50
2022-10-20T23:06:17.152Z,11.40
2022-10-20T23:08:46.780Z,11.40
2022-10-20T23:11:14.512Z,11.30
2022-10-20T23:13:41.338Z,11.30
2022-10-20T23:16:08.658Z,11.30
2022-10-20T23:18:35.237Z,11.30
2022-10-20T23:21:02.136Z,11.30
2022-10-20T23:23:28.770Z,11.30
2022-10-20T23:25:55.799Z,11.30
2022-10-20T23:28:22.760Z,11.40
2022-10-20T23:30:49.407Z,11.40
2022-10-20T23:33:16.250Z,11.50
2022-10-20T23:35:42.775Z,11.50
2022-10-20T23:38:13.307Z,11.50
2022-10-20T23:40:39.904Z,11.50
2022-10-20T23:43:06.417Z,11.50
2022-10-20T23:45:35.529Z,11.50
2022-10-20T23:48:04.491Z,11.60
2022-10-20T23:50:31.083Z,11.50
2022-10-20T23:52:57.615Z,11.60
2022-10-20T23:55:24.123Z,11.60
2022-10-20T23:57:50.889Z,11.60
